Time;durP1;ratioP1;P1;durP2;ratioP2;P2;SDS_P1;SDS_P2;PMS_P1;PMS_P2;Temp;Humidity;BMP_temperature;BMP_pressure;BME280_temperature;BME280_humidity;BME280_pressure;Samples;Min_cycle;Max_cycle;Signal;HPM_P1;HPM_P2
2023/12/20 00:02:10;;;;;;;24.63;5.57;;;5.20;99.90;;;;;;4962983;28;20050;-76
2023/12/20 00:04:43;;;;;;;20.50;5.57;;;5.30;99.90;;;;;;4978881;28;20034;-76
2023/12/20 00:07:09;;;;;;;29.42;6.03;;;5.30;99.90;;;;;;4995188;28;20046;-76
2023/12/20 00:09:47;;;;;;;21.88;4.78;;;5.40;99.90;;;;;;4978825;28;20041;-76
2023/12/20 00:12:12;;;;;;;26.35;5.97;;;5.30;99.90;;;;;;4975537;28;20061;-76
2023/12/20 00:14:46;;;;;;;31.10;5.75;;;5.30;99.90;;;;;;4996893;28;20412;-76
2023/12/20 00:17:14;;;;;;;29.23;5.75;;;5.30;99.90;;;;;;4978532;28;20450;-75
2023/12/20 00:19:42;;;;;;;29.15;5.65;;;5.20;99.90;;;;;;4976427;28;20049;-75
2023/12/20 00:22:14;;;;;;;25.83;4.97;;;5.10;99.90;;;;;;4978752;28;20053;-75
2023/12/20 00:24:57;;;;;;;28.35;5.32;;;5.00;99.90;;;;;;4994414;28;20069;-75
2023/12/20 00:27:29;;;;;;;24.45;5.15;;;4.90;99.90;;;;;;4984653;28;20049;-76
2023/12/20 00:29:58;;;;;;;22.05;4.90;;;4.90;99.90;;;;;;4994098;28;20436;-76
2023/12/20 00:32:23;;;;;;;33.60;5.85;;;4.90;99.90;;;;;;4978253;28;20052;-76
2023/12/20 00:34:57;;;;;;;29.55;6.53;;;4.90;99.90;;;;;;4978372;28;20136;-76
2023/12/20 00:37:26;;;;;;;32.78;6.18;;;4.90;99.90;;;;;;4995005;28;20088;-76
2023/12/20 00:42:51;;;;;;;34.85;6.43;;;4.90;99.90;;;;;;4994615;28;20128;-76
2023/12/20 00:45:22;;;;;;;24.38;5.60;;;4.90;99.90;;;;;;4976593;28;20050;-76
2023/12/20 00:47:53;;;;;;;32.20;5.90;;;4.90;99.90;;;;;;4977591;28;20034;-76
2023/12/20 00:50:26;;;;;;;26.83;5.88;;;4.80;99.90;;;;;;4974572;28;20038;-76
2023/12/20 00:52:56;;;;;;;26.30;5.90;;;4.80;99.90;;;;;;4989268;28;20147;-76
2023/12/20 00:55:30;;;;;;;26.27;5.75;;;4.80;99.90;;;;;;4999040;28;20054;-76
2023/12/20 00:58:01;;;;;;;21.50;5.60;;;4.80;99.90;;;;;;4984247;28;20030;-75
2023/12/20 01:00:29;;;;;;;28.73;5.93;;;4.80;99.90;;;;;;4982479;28;20034;-75
2023/12/20 01:02:55;;;;;;;24.85;5.35;;;4.70;99.90;;;;;;4971550;28;20042;-75
2023/12/20 01:05:23;;;;;;;28.05;7.18;;;4.70;99.90;;;;;;4965129;28;20061;-75
2023/12/20 01:07:57;;;;;;;28.08;6.13;;;4.70;99.90;;;;;;4984727;28;20063;-75
2023/12/20 01:10:28;;;;;;;27.80;6.90;;;4.80;99.90;;;;;;4993074;28;20042;-75
2023/12/20 01:12:59;;;;;;;28.17;6.55;;;4.90;99.90;;;;;;4962863;28;20050;-75
2023/12/20 01:15:28;;;;;;;32.75;6.82;;;5.00;99.90;;;;;;4961240;28;20520;-75
2023/12/20 01:17:59;;;;;;;28.17;6.82;;;5.00;99.90;;;;;;4962492;28;20046;-75
2023/12/20 01:20:25;;;;;;;30.65;6.65;;;4.90;99.90;;;;;;4979159;28;20030;-75
2023/12/20 01:22:53;;;;;;;31.73;6.13;;;5.10;99.90;;;;;;4980652;28;20553;-75
2023/12/20 01:25:21;;;;;;;32.60;6.80;;;5.10;99.90;;;;;;4997849;28;20029;-75
2023/12/20 01:27:53;;;;;;;29.92;5.78;;;5.10;99.90;;;;;;5005781;28;20492;-76
2023/12/20 01:30:27;;;;;;;30.40;6.90;;;5.20;99.90;;;;;;5001470;28;20038;-76
2023/12/20 01:32:56;;;;;;;28.88;6.88;;;5.20;99.90;;;;;;4981449;28;20627;-76
2023/12/20 01:35:21;;;;;;;33.13;6.93;;;5.10;99.90;;;;;;4989982;28;20048;-76
2023/12/20 01:37:56;;;;;;;30.33;6.70;;;5.10;99.90;;;;;;4993370;28;20049;-76
2023/12/20 01:40:27;;;;;;;32.80;6.60;;;5.10;99.90;;;;;;4975541;28;20039;-76
2023/12/20 01:43:12;;;;;;;36.70;7.07;;;5.10;99.90;;;;;;4962488;28;20042;-76
2023/12/20 01:45:38;;;;;;;22.92;5.88;;;5.10;99.90;;;;;;4962020;28;20081;-76
2023/12/20 01:48:12;;;;;;;30.15;6.75;;;5.20;99.90;;;;;;4962222;28;20057;-76
2023/12/20 01:50:43;;;;;;;33.13;6.70;;;5.10;99.90;;;;;;4973646;28;20045;-76
2023/12/20 01:53:16;;;;;;;30.73;5.78;;;5.20;99.90;;;;;;4991653;28;20124;-76
2023/12/20 01:55:49;;;;;;;28.08;6.45;;;5.20;99.90;;;;;;4997147;28;20046;-76
2023/12/20 01:58:20;;;;;;;35.50;6.45;;;5.10;99.90;;;;;;4997249;28;20034;-76
2023/12/20 02:00:47;;;;;;;29.35;5.45;;;5.20;99.90;;;;;;4988002;28;20041;-76
2023/12/20 02:03:21;;;;;;;26.88;5.65;;;5.20;99.90;;;;;;4970672;28;20092;-76
2023/12/20 02:05:47;;;;;;;31.70;6.00;;;5.30;99.90;;;;;;4961408;28;20120;-76
2023/12/20 02:08:21;;;;;;;28.80;6.53;;;5.30;99.90;;;;;;4961345;28;20114;-76
2023/12/20 02:10:50;;;;;;;26.40;5.40;;;5.30;99.90;;;;;;4977456;23;20038;-77
2023/12/20 02:13:16;;;;;;;22.35;4.97;;;5.30;99.90;;;;;;5010203;28;20040;-77
2023/12/20 02:15:43;;;;;;;22.73;5.57;;;5.30;99.90;;;;;;5009067;28;20049;-77
2023/12/20 02:18:09;;;;;;;20.17;4.65;;;5.30;99.90;;;;;;4981313;28;20053;-78
2023/12/20 02:20:34;;;;;;;26.05;4.82;;;5.30;99.90;;;;;;4970528;28;20043;-77
2023/12/20 02:23:00;;;;;;;28.50;5.72;;;5.40;99.90;;;;;;4976842;28;20035;-77
2023/12/20 02:25:25;;;;;;;17.20;4.68;;;5.40;99.90;;;;;;4993663;28;20050;-77
2023/12/20 02:27:52;;;;;;;30.80;6.70;;;5.30;99.90;;;;;;5026190;28;20412;-78
2023/12/20 02:30:17;;;;;;;27.85;7.03;;;5.30;99.90;;;;;;4993751;28;20443;-77
2023/12/20 02:32:43;;;;;;;28.13;7.35;;;5.40;99.90;;;;;;4977479;28;20093;-77
2023/12/20 02:35:08;;;;;;;33.45;6.85;;;5.40;99.90;;;;;;5025980;28;20665;-77
2023/12/20 02:37:34;;;;;;;37.13;7.95;;;5.40;99.90;;;;;;5008295;28;20066;-77
2023/12/20 02:39:59;;;;;;;42.03;9.45;;;5.50;99.90;;;;;;5009774;28;20061;-77
2023/12/20 02:42:25;;;;;;;34.42;8.32;;;5.50;99.90;;;;;;5026346;28;20065;-77
2023/12/20 02:44:50;;;;;;;36.17;7.88;;;5.50;99.90;;;;;;5009283;28;20104;-77
2023/12/20 02:47:16;;;;;;;32.80;7.32;;;5.60;99.90;;;;;;4992688;28;20459;-77
2023/12/20 02:49:42;;;;;;;33.97;8.13;;;5.60;99.90;;;;;;5026176;28;20588;-77
2023/12/20 02:52:07;;;;;;;33.90;7.55;;;5.60;99.90;;;;;;4993373;28;20093;-77
2023/12/20 02:54:33;;;;;;;40.30;7.85;;;5.70;99.90;;;;;;5025770;28;20038;-77
2023/12/20 02:56:58;;;;;;;39.47;7.88;;;5.60;99.90;;;;;;5009103;28;20515;-77
2023/12/20 02:59:24;;;;;;;37.80;7.90;;;5.60;99.90;;;;;;5008568;28;20038;-77
2023/12/20 03:01:49;;;;;;;40.63;8.70;;;5.60;99.90;;;;;;4993018;28;20468;-77
2023/12/20 03:04:15;;;;;;;39.00;8.15;;;5.60;99.90;;;;;;5025830;28;20508;-77
2023/12/20 03:06:40;;;;;;;41.47;8.10;;;5.60;99.90;;;;;;4993142;28;20105;-77
2023/12/20 03:09:06;;;;;;;54.90;10.48;;;5.60;99.90;;;;;;5001924;28;20563;-77
2023/12/20 03:11:31;;;;;;;40.92;8.00;;;5.60;99.90;;;;;;4973461;28;20077;-77
2023/12/20 03:13:57;;;;;;;45.33;9.02;;;5.60;99.90;;;;;;4992505;28;20035;-77
2023/12/20 03:16:23;;;;;;;49.05;9.63;;;5.60;99.90;;;;;;4992731;28;20043;-77
2023/12/20 03:18:49;;;;;;;40.78;8.57;;;5.60;99.90;;;;;;4992418;28;20045;-77
2023/12/20 03:21:15;;;;;;;34.97;8.73;;;5.70;99.90;;;;;;5008440;28;20484;-77
2023/12/20 03:23:41;;;;;;;42.55;8.52;;;5.70;99.90;;;;;;4976104;28;20038;-77
2023/12/20 03:26:10;;;;;;;46.17;9.70;;;5.70;99.90;;;;;;4976019;28;20514;-77
2023/12/20 03:28:38;;;;;;;38.63;8.68;;;5.70;99.90;;;;;;4981386;28;20523;-77
2023/12/20 03:31:04;;;;;;;38.65;9.07;;;5.60;99.90;;;;;;4957005;28;20035;-77
2023/12/20 03:33:29;;;;;;;39.83;8.60;;;5.60;99.90;;;;;;4956831;28;20061;-77
2023/12/20 03:35:55;;;;;;;40.22;9.00;;;5.60;99.90;;;;;;5005030;28;20042;-77
2023/12/20 03:38:23;;;;;;;42.28;9.20;;;5.70;99.90;;;;;;4991242;28;20039;-78
2023/12/20 03:40:49;;;;;;;37.17;8.57;;;5.70;99.90;;;;;;4978822;28;20090;-77
2023/12/20 03:43:15;;;;;;;41.58;9.10;;;5.80;99.90;;;;;;4956372;28;20136;-77
2023/12/20 03:45:41;;;;;;;40.22;8.65;;;5.90;99.90;;;;;;5005147;28;20042;-77
2023/12/20 03:48:07;;;;;;;39.05;8.95;;;5.90;99.90;;;;;;5011817;28;20265;-77
2023/12/20 03:50:32;;;;;;;41.40;8.77;;;5.80;99.90;;;;;;5008285;28;20046;-77
2023/12/20 03:52:58;;;;;;;34.75;7.38;;;5.80;99.90;;;;;;5007947;28;20050;-77
2023/12/20 03:55:23;;;;;;;38.33;8.85;;;5.80;99.90;;;;;;4991614;28;20042;-78
2023/12/20 03:57:49;;;;;;;33.97;8.30;;;5.80;99.90;;;;;;4973052;28;20035;-77
2023/12/20 04:00:15;;;;;;;41.90;8.60;;;5.90;99.90;;;;;;4996610;28;20198;-77
2023/12/20 04:02:42;;;;;;;35.53;8.35;;;5.80;99.90;;;;;;4991617;28;20037;-77
2023/12/20 04:05:08;;;;;;;45.08;8.98;;;5.70;99.90;;;;;;4991509;28;20046;-77
2023/12/20 04:07:34;;;;;;;38.65;8.35;;;5.70;99.90;;;;;;4973420;28;20042;-77
2023/12/20 04:10:00;;;;;;;43.72;8.55;;;5.60;99.90;;;;;;5010320;28;20066;-77
2023/12/20 04:12:27;;;;;;;43.75;8.57;;;5.60;99.90;;;;;;5024193;28;20034;-77
2023/12/20 04:14:53;;;;;;;36.88;7.32;;;5.50;99.90;;;;;;5007416;28;20042;-77
2023/12/20 04:17:19;;;;;;;35.00;8.00;;;5.50;99.90;;;;;;4991351;28;20419;-77
2023/12/20 04:19:45;;;;;;;40.08;9.65;;;5.50;99.90;;;;;;4991279;28;20042;-77
2023/12/20 04:22:11;;;;;;;40.13;9.38;;;5.50;99.90;;;;;;4991407;28;20099;-76
2023/12/20 04:24:36;;;;;;;42.13;9.32;;;5.50;99.90;;;;;;5023318;28;20122;-77
2023/12/20 04:27:02;;;;;;;45.28;9.20;;;5.50;99.90;;;;;;4991244;28;20452;-77
2023/12/20 04:29:28;;;;;;;35.25;9.27;;;5.60;99.90;;;;;;4991113;28;20073;-77
2023/12/20 04:31:54;;;;;;;31.83;8.13;;;5.60;99.90;;;;;;5024146;28;20042;-76
2023/12/20 04:34:19;;;;;;;41.78;8.63;;;5.70;99.90;;;;;;4974931;28;20485;-77
2023/12/20 04:36:45;;;;;;;38.10;9.07;;;5.70;99.90;;;;;;5007571;28;20042;-77
2023/12/20 04:39:12;;;;;;;37.00;9.05;;;5.80;99.90;;;;;;4991074;28;20106;-77
2023/12/20 04:41:38;;;;;;;33.28;8.65;;;5.80;99.90;;;;;;4974682;28;20045;-77
2023/12/20 04:44:03;;;;;;;40.55;9.07;;;5.80;99.90;;;;;;5007696;28;20038;-77
2023/12/20 04:46:29;;;;;;;35.55;8.60;;;5.80;99.90;;;;;;4991464;28;20030;-77
2023/12/20 04:48:55;;;;;;;40.97;8.73;;;5.80;99.90;;;;;;4978836;28;20135;-77
2023/12/20 04:51:21;;;;;;;35.58;8.68;;;5.80;99.90;;;;;;4971990;28;20551;-77
2023/12/20 04:53:46;;;;;;;31.38;8.68;;;5.80;99.90;;;;;;5005837;28;20046;-77
2023/12/20 04:56:12;;;;;;;33.90;7.95;;;5.80;99.90;;;;;;4991005;28;20121;-77
2023/12/20 04:58:37;;;;;;;41.72;8.98;;;5.80;99.90;;;;;;4981010;28;20039;-78
2023/12/20 05:01:05;;;;;;;41.03;8.43;;;5.90;99.90;;;;;;5004087;28;20035;-77
2023/12/20 05:03:30;;;;;;;37.05;8.55;;;5.80;99.90;;;;;;4971721;28;20043;-77
2023/12/20 05:05:56;;;;;;;39.95;8.35;;;5.80;99.90;;;;;;5023470;28;20109;-77
2023/12/20 05:08:21;;;;;;;33.72;8.35;;;5.90;99.90;;;;;;4984023;28;20043;-76
2023/12/20 05:10:47;;;;;;;36.42;8.70;;;5.90;99.90;;;;;;5003829;28;20046;-77
2023/12/20 05:13:13;;;;;;;43.65;9.13;;;5.90;99.90;;;;;;5004173;28;20035;-77
2023/12/20 05:15:39;;;;;;;33.97;8.20;;;6.00;99.90;;;;;;5006478;28;20583;-77
2023/12/20 05:18:04;;;;;;;36.97;8.73;;;6.00;99.90;;;;;;4990191;28;20092;-78
2023/12/20 05:20:30;;;;;;;36.08;9.02;;;6.10;99.90;;;;;;4990822;28;20038;-77
2023/12/20 05:22:55;;;;;;;38.50;7.57;;;6.10;99.90;;;;;;4990756;28;20034;-77
2023/12/20 05:25:21;;;;;;;39.45;8.57;;;6.20;99.90;;;;;;4990863;28;20034;-77
2023/12/20 05:27:46;;;;;;;28.88;6.85;;;6.20;99.90;;;;;;4990152;28;20053;-78
2023/12/20 05:30:12;;;;;;;36.72;8.43;;;6.20;99.90;;;;;;5023592;28;20041;-77
2023/12/20 05:32:38;;;;;;;30.15;7.72;;;6.20;99.90;;;;;;4990791;28;20070;-77
2023/12/20 05:35:03;;;;;;;42.05;8.50;;;6.20;99.90;;;;;;5007086;28;20035;-77
2023/12/20 05:37:29;;;;;;;33.67;7.50;;;6.20;99.90;;;;;;4992535;28;20414;-77
2023/12/20 05:39:54;;;;;;;35.33;8.30;;;6.20;99.90;;;;;;5008310;28;20112;-78
2023/12/20 05:42:20;;;;;;;33.63;7.88;;;6.20;99.90;;;;;;5007563;28;20043;-77
2023/12/20 05:44:46;;;;;;;31.40;7.05;;;6.30;99.90;;;;;;5013945;28;20042;-78
2023/12/20 05:47:11;;;;;;;38.75;8.65;;;6.30;99.90;;;;;;5010660;28;20045;-78
2023/12/20 05:49:37;;;;;;;33.63;7.78;;;6.30;99.90;;;;;;5026631;28;20085;-78
2023/12/20 05:52:02;;;;;;;33.03;7.30;;;6.30;99.90;;;;;;5027007;28;20096;-77
2023/12/20 05:54:28;;;;;;;34.65;7.68;;;6.30;99.90;;;;;;5026886;28;20042;-77
2023/12/20 05:56:53;;;;;;;29.55;7.18;;;6.30;99.90;;;;;;5010485;28;20085;-78
2023/12/20 05:59:19;;;;;;;29.77;6.55;;;6.30;99.90;;;;;;4993742;28;20117;-78
2023/12/20 06:01:44;;;;;;;32.25;7.65;;;6.40;99.90;;;;;;4994385;28;20038;-78
2023/12/20 06:04:10;;;;;;;30.10;6.80;;;6.30;99.90;;;;;;5027010;28;20089;-77
2023/12/20 06:06:41;;;;;;;32.92;7.35;;;6.40;99.90;;;;;;5010888;28;20097;-78
2023/12/20 06:09:07;;;;;;;33.30;7.22;;;6.40;99.90;;;;;;5002850;28;20057;-78
2023/12/20 06:11:33;;;;;;;35.58;7.85;;;6.40;99.90;;;;;;4993596;28;20039;-77
2023/12/20 06:13:58;;;;;;;34.17;8.02;;;6.40;99.90;;;;;;4977460;28;20098;-78
2023/12/20 06:16:24;;;;;;;34.03;7.97;;;6.40;99.90;;;;;;4989563;28;20409;-78
2023/12/20 06:18:49;;;;;;;37.83;7.05;;;6.40;99.90;;;;;;4959005;28;20045;-78
2023/12/20 06:21:15;;;;;;;35.40;8.85;;;6.40;99.90;;;;;;4994236;28;20238;-77
2023/12/20 06:23:41;;;;;;;29.88;7.28;;;6.40;99.90;;;;;;5010325;28;20405;-77
2023/12/20 06:26:06;;;;;;;29.42;7.25;;;6.40;99.90;;;;;;5026890;28;20477;-77
2023/12/20 06:28:32;;;;;;;28.17;6.93;;;6.40;99.90;;;;;;4993405;28;20117;-78
2023/12/20 06:30:57;;;;;;;30.00;6.45;;;6.50;99.90;;;;;;4977615;28;20034;-77
2023/12/20 06:33:23;;;;;;;30.30;6.90;;;6.50;99.90;;;;;;4977271;28;20100;-77
2023/12/20 06:35:49;;;;;;;25.35;6.22;;;6.50;99.90;;;;;;4993704;28;20034;-76
2023/12/20 06:38:15;;;;;;;26.95;6.22;;;6.50;99.90;;;;;;4989241;28;20105;-77
2023/12/20 06:40:40;;;;;;;32.08;6.30;;;6.50;99.90;;;;;;5006890;28;20182;-76
2023/12/20 06:43:06;;;;;;;30.83;7.13;;;6.60;99.90;;;;;;4990018;28;20456;-76
2023/12/20 06:45:32;;;;;;;29.42;6.68;;;6.50;99.90;;;;;;5003500;28;20038;-76
2023/12/20 06:47:58;;;;;;;30.67;6.78;;;6.50;99.90;;;;;;4990733;28;20050;-76
2023/12/20 06:50:24;;;;;;;27.08;6.50;;;6.60;99.90;;;;;;5006416;28;20429;-76
2023/12/20 06:52:49;;;;;;;33.45;7.20;;;6.60;99.90;;;;;;5006560;28;20053;-76
2023/12/20 06:55:15;;;;;;;30.65;7.72;;;6.60;99.90;;;;;;5006079;28;20121;-76
2023/12/20 06:57:41;;;;;;;29.40;6.93;;;6.60;99.90;;;;;;4990277;28;20039;-77
2023/12/20 07:00:08;;;;;;;29.00;6.50;;;6.60;99.90;;;;;;5025237;28;21026;-76
2023/12/20 07:02:34;;;;;;;27.05;6.68;;;6.60;99.90;;;;;;4992755;28;20101;-76
2023/12/20 07:04:59;;;;;;;34.35;7.60;;;6.60;99.90;;;;;;4992703;28;20500;-75
2023/12/20 07:07:26;;;;;;;30.00;6.55;;;6.60;99.90;;;;;;5025570;28;20045;-76
2023/12/20 07:09:51;;;;;;;32.65;6.88;;;6.60;99.90;;;;;;5008609;28;20046;-76
2023/12/20 07:12:19;;;;;;;34.28;7.18;;;6.60;99.90;;;;;;4973371;28;20520;-76
2023/12/20 07:14:45;;;;;;;32.00;6.88;;;6.60;99.90;;;;;;4970076;28;20404;-76
2023/12/20 07:17:13;;;;;;;29.08;7.10;;;6.60;99.90;;;;;;5024539;28;20524;-76
2023/12/20 07:19:39;;;;;;;26.88;6.47;;;6.70;99.90;;;;;;5009724;28;20035;-76
2023/12/20 07:22:06;;;;;;;27.88;6.32;;;6.60;99.90;;;;;;5008162;28;20050;-76
2023/12/20 07:24:32;;;;;;;28.63;7.55;;;6.70;99.90;;;;;;5023284;28;20065;-76
2023/12/20 07:26:59;;;;;;;35.38;7.13;;;6.70;99.90;;;;;;4992189;28;20058;-76
2023/12/20 07:29:25;;;;;;;38.60;8.52;;;6.70;99.90;;;;;;5011750;28;20640;-76
2023/12/20 07:31:52;;;;;;;30.88;6.60;;;6.70;99.90;;;;;;4980964;28;20046;-76
2023/12/20 07:34:17;;;;;;;29.88;6.82;;;6.70;99.90;;;;;;5024941;28;20042;-76
2023/12/20 07:36:43;;;;;;;30.98;6.82;;;6.70;99.90;;;;;;4992568;28;20038;-76
2023/12/20 07:39:09;;;;;;;33.25;7.30;;;6.70;99.90;;;;;;4992062;28;20042;-77
2023/12/20 07:41:34;;;;;;;32.30;7.40;;;6.80;99.90;;;;;;4990756;28;20489;-77
2023/12/20 07:44:00;;;;;;;30.98;6.55;;;6.70;99.90;;;;;;4973012;28;20070;-76
2023/12/20 07:46:25;;;;;;;30.27;6.55;;;6.70;99.90;;;;;;4992779;28;20049;-76
2023/12/20 07:48:51;;;;;;;34.17;6.80;;;6.80;99.90;;;;;;5016184;28;20094;-77
2023/12/20 07:51:17;;;;;;;34.88;7.28;;;6.80;99.90;;;;;;4989289;28;20073;-77
2023/12/20 07:53:42;;;;;;;32.95;8.18;;;6.80;99.90;;;;;;5016967;28;20050;-76
2023/12/20 07:56:18;;;;;;;35.30;7.70;;;6.80;99.90;;;;;;4960404;28;20043;-77
2023/12/20 07:58:45;;;;;;;40.15;8.52;;;6.80;99.90;;;;;;4979315;28;20069;-76
2023/12/20 08:01:11;;;;;;;38.13;7.95;;;6.80;99.90;;;;;;5024106;28;20034;-78
2023/12/20 08:03:37;;;;;;;36.25;8.15;;;6.80;99.90;;;;;;5011609;28;20050;-77
2023/12/20 08:06:03;;;;;;;36.88;7.57;;;6.80;99.90;;;;;;5010819;28;20043;-78
2023/12/20 08:08:29;;;;;;;27.23;7.03;;;6.80;99.90;;;;;;4993739;28;20157;-78
2023/12/20 08:10:54;;;;;;;32.80;6.97;;;6.80;99.90;;;;;;5016035;23;20032;-75
2023/12/20 08:13:26;;;;;;;36.65;7.80;;;6.80;99.90;;;;;;4998919;28;20423;-75
2023/12/20 08:16:00;;;;;;;34.35;7.20;;;6.80;99.90;;;;;;4981133;28;20038;-76
2023/12/20 08:18:28;;;;;;;28.95;7.32;;;6.80;99.90;;;;;;4977350;28;20034;-75
2023/12/20 08:21:02;;;;;;;34.78;7.78;;;6.90;99.90;;;;;;4975127;28;20042;-75
2023/12/20 08:23:27;;;;;;;29.38;7.38;;;6.90;99.90;;;;;;4967368;28;20084;-75
2023/12/20 08:25:56;;;;;;;47.90;8.60;;;6.90;99.90;;;;;;4961227;28;20054;-75
2023/12/20 08:28:27;;;;;;;31.98;7.32;;;6.90;99.90;;;;;;4958028;28;20061;-75
2023/12/20 08:30:53;;;;;;;33.90;7.47;;;7.00;99.90;;;;;;4966345;28;20046;-76
2023/12/20 08:33:19;;;;;;;32.53;7.25;;;7.00;99.90;;;;;;4958683;28;20481;-76
2023/12/20 08:35:47;;;;;;;38.58;8.13;;;7.10;99.90;;;;;;4957896;28;20065;-75
2023/12/20 08:38:14;;;;;;;32.55;7.22;;;7.00;99.90;;;;;;4958813;28;20034;-75
2023/12/20 08:40:50;;;;;;;30.80;7.53;;;7.00;99.90;;;;;;4958012;28;20049;-75
2023/12/20 08:43:18;;;;;;;35.83;7.95;;;7.00;99.90;;;;;;4964086;28;20049;-74
2023/12/20 08:45:49;;;;;;;31.02;7.05;;;7.10;99.90;;;;;;4958646;28;20057;-74
2023/12/20 08:48:20;;;;;;;27.17;7.07;;;7.10;99.90;;;;;;4975957;28;20046;-74
2023/12/20 08:50:50;;;;;;;27.52;6.28;;;7.00;99.90;;;;;;4957418;28;20046;-74
2023/12/20 08:53:21;;;;;;;35.38;7.30;;;7.00;99.90;;;;;;4977222;28;20100;-74
2023/12/20 08:56:12;;;;;;;30.63;6.78;;;7.00;99.90;;;;;;4959637;28;20408;-75
2023/12/20 08:58:49;;;;;;;32.63;7.03;;;7.00;99.90;;;;;;4971641;28;20053;-75
2023/12/20 09:01:22;;;;;;;27.45;7.28;;;7.10;99.90;;;;;;4968007;28;20042;-75
2023/12/20 09:03:51;;;;;;;31.25;7.25;;;7.10;99.90;;;;;;4980967;28;20031;-74
2023/12/20 09:09:13;;;;;;;32.45;7.20;;;7.20;99.90;;;;;;4955759;28;20133;-74
2023/12/20 09:11:48;;;;;;;36.30;7.10;;;7.20;99.90;;;;;;4956914;28;20043;-75
2023/12/20 09:14:26;;;;;;;35.95;7.22;;;7.30;99.90;;;;;;4958974;28;20082;-75
2023/12/20 09:17:01;;;;;;;28.27;6.00;;;7.30;99.90;;;;;;4959001;28;20082;-75
2023/12/20 09:19:34;;;;;;;25.30;6.18;;;7.50;99.90;;;;;;4958686;28;20027;-74
2023/12/20 09:22:03;;;;;;;31.63;6.22;;;7.40;99.90;;;;;;4978156;28;20035;-75
2023/12/20 09:24:40;;;;;;;26.13;6.00;;;7.50;99.90;;;;;;4961286;28;20082;-75
2023/12/20 09:27:11;;;;;;;24.95;5.53;;;7.50;99.90;;;;;;4961366;28;20051;-75
2023/12/20 09:29:44;;;;;;;28.42;6.22;;;7.50;99.90;;;;;;4962792;28;20413;-75
2023/12/20 09:32:10;;;;;;;27.38;6.45;;;7.50;99.90;;;;;;4961156;28;20579;-75
2023/12/20 09:34:47;;;;;;;28.45;7.43;;;7.40;99.90;;;;;;4969735;28;20113;-75
2023/12/20 09:37:20;;;;;;;26.45;6.55;;;7.40;99.90;;;;;;4978082;28;20042;-75
2023/12/20 09:39:52;;;;;;;30.27;6.70;;;7.40;99.90;;;;;;4961539;28;20039;-75
2023/12/20 09:42:31;;;;;;;32.03;7.22;;;7.50;99.90;;;;;;4964710;28;20038;-75
2023/12/20 09:45:07;;;;;;;31.33;6.95;;;7.60;99.90;;;;;;4978105;28;20047;-75
2023/12/20 09:47:40;;;;;;;26.40;6.38;;;7.70;99.90;;;;;;4963077;28;20054;-75
2023/12/20 09:50:17;;;;;;;21.02;5.90;;;7.70;99.90;;;;;;4971743;28;20053;-75
2023/12/20 09:53:00;;;;;;;24.55;6.35;;;7.80;99.90;;;;;;4960529;28;20497;-76
2023/12/20 09:55:30;;;;;;;27.15;6.75;;;7.90;99.90;;;;;;4961675;28;20050;-75
2023/12/20 09:57:58;;;;;;;25.50;6.03;;;7.90;99.90;;;;;;4960909;28;20493;-75
2023/12/20 10:00:45;;;;;;;26.50;6.60;;;8.00;99.90;;;;;;4969333;28;20030;-76
2023/12/20 10:03:28;;;;;;;28.95;6.55;;;8.00;99.90;;;;;;4961390;28;20272;-75
2023/12/20 10:06:02;;;;;;;25.20;5.90;;;7.90;99.90;;;;;;4961687;28;20065;-75
2023/12/20 10:08:41;;;;;;;24.48;6.57;;;8.00;99.90;;;;;;4960821;28;20093;-76
2023/12/20 10:11:19;;;;;;;13.88;2.90;;;8.00;99.90;;;;;;4964339;28;20488;-76
2023/12/20 10:13:48;;;;;;;13.55;3.15;;;7.80;99.90;;;;;;4961316;28;20148;-77
2023/12/20 10:16:16;;;;;;;15.65;3.80;;;7.50;99.90;;;;;;4961505;28;20046;-76
2023/12/20 10:18:45;;;;;;;12.95;2.80;;;7.30;99.90;;;;;;4961152;28;20465;-76
2023/12/20 10:21:13;;;;;;;12.05;2.90;;;7.10;99.90;;;;;;4959848;28;20129;-76
2023/12/20 10:23:51;;;;;;;12.23;3.28;;;7.00;99.90;;;;;;4974339;28;20061;-75
2023/12/20 10:26:21;;;;;;;10.57;2.58;;;6.90;99.90;;;;;;4971024;28;20042;-76
2023/12/20 10:29:04;;;;;;;14.52;3.20;;;6.90;99.90;;;;;;4985284;28;20042;-76
2023/12/20 10:31:38;;;;;;;10.95;2.88;;;6.80;99.90;;;;;;4962084;28;20086;-76
2023/12/20 10:34:04;;;;;;;13.57;3.08;;;6.70;99.90;;;;;;4969296;28;20065;-74
2023/12/20 10:36:33;;;;;;;12.55;3.13;;;6.70;99.90;;;;;;4971231;28;20129;-76
2023/12/20 10:39:16;;;;;;;12.77;2.67;;;6.70;99.90;;;;;;4942202;28;20043;-77
2023/12/20 10:41:48;;;;;;;12.02;3.00;;;6.60;99.90;;;;;;4945161;28;20049;-77
2023/12/20 10:44:19;;;;;;;12.32;3.05;;;6.60;99.90;;;;;;4970817;28;20045;-77
2023/12/20 10:46:58;;;;;;;15.07;3.13;;;6.60;99.90;;;;;;4963913;28;20046;-78
2023/12/20 10:49:31;;;;;;;16.55;2.85;;;6.60;99.90;;;;;;4960546;28;20222;-76
2023/12/20 10:51:59;;;;;;;15.27;3.00;;;6.60;99.90;;;;;;4969689;28;20035;-77
2023/12/20 10:54:27;;;;;;;15.13;3.20;;;6.60;99.90;;;;;;4960473;28;20050;-77
2023/12/20 10:56:57;;;;;;;17.40;3.20;;;6.60;99.90;;;;;;4960405;28;20057;-76
2023/12/20 10:59:31;;;;;;;13.55;2.95;;;6.60;99.90;;;;;;4960566;28;20039;-76
2023/12/20 11:02:10;;;;;;;15.15;3.08;;;6.50;99.90;;;;;;4961256;28;20043;-76
2023/12/20 11:05:26;;;;;;;13.45;3.25;;;6.50;99.90;;;;;;4959781;28;20053;-77
2023/12/20 11:08:11;;;;;;;15.93;2.90;;;6.50;99.90;;;;;;4930020;29;20125;-77
2023/12/20 11:11:02;;;;;;;17.27;3.70;;;6.50;99.90;;;;;;4960470;28;20043;-77
2023/12/20 11:13:58;;;;;;;15.60;3.35;;;6.50;99.90;;;;;;4970107;28;20354;-77
2023/12/20 11:16:31;;;;;;;21.30;4.30;;;6.50;99.90;;;;;;4965245;28;20413;-77
2023/12/20 11:19:03;;;;;;;23.05;4.70;;;6.40;99.90;;;;;;4955001;28;20026;-78
2023/12/20 11:21:30;;;;;;;16.20;4.00;;;6.40;99.90;;;;;;4976182;28;20049;-77
2023/12/20 11:24:06;;;;;;;16.83;4.13;;;6.40;99.90;;;;;;4962123;28;20437;-76
2023/12/20 11:26:31;;;;;;;15.88;3.10;;;6.40;99.90;;;;;;4989831;28;20053;-75
2023/12/20 11:29:44;;;;;;;15.27;2.88;;;6.40;99.90;;;;;;4972818;28;20042;-76
2023/12/20 11:32:26;;;;;;;19.10;3.35;;;6.50;99.90;;;;;;4971344;28;20113;-76
2023/12/20 11:35:14;;;;;;;16.67;3.25;;;6.50;99.90;;;;;;4958941;28;20469;-77
2023/12/20 11:37:43;;;;;;;21.15;3.85;;;6.60;99.90;;;;;;4959683;28;20141;-77
2023/12/20 11:40:21;;;;;;;19.70;3.70;;;6.60;99.90;;;;;;4964964;28;20031;-76
2023/12/20 11:42:53;;;;;;;15.05;2.90;;;6.60;99.90;;;;;;4965716;28;20073;-76
2023/12/20 11:45:21;;;;;;;17.35;3.25;;;6.60;99.90;;;;;;4973921;28;20089;-76
2023/12/20 11:47:57;;;;;;;17.90;3.17;;;6.60;99.90;;;;;;4963428;28;20038;-76
2023/12/20 11:50:30;;;;;;;17.38;3.05;;;6.60;99.90;;;;;;4959270;28;20042;-76
2023/12/20 11:53:03;;;;;;;11.73;2.47;;;6.50;99.90;;;;;;4965340;28;20041;-76
2023/12/20 11:55:36;;;;;;;19.13;3.00;;;6.40;99.90;;;;;;4992885;28;20061;-76
2023/12/20 11:58:09;;;;;;;11.73;2.45;;;6.50;99.90;;;;;;4971412;28;20034;-74
2023/12/20 12:00:43;;;;;;;12.35;2.72;;;6.50;99.90;;;;;;4967612;28;20034;-76
2023/12/20 12:03:18;;;;;;;16.88;3.13;;;6.50;99.90;;;;;;4971014;28;20049;-76
2023/12/20 12:05:53;;;;;;;15.25;3.00;;;6.50;99.90;;;;;;4995132;28;20105;-75
2023/12/20 12:08:24;;;;;;;17.98;3.55;;;6.50;99.90;;;;;;4995175;28;20038;-75
2023/12/20 12:11:05;;;;;;;15.18;2.90;;;6.50;99.90;;;;;;4979420;28;20072;-77
2023/12/20 12:13:31;;;;;;;20.75;3.58;;;6.50;99.90;;;;;;4960496;28;20034;-77
2023/12/20 12:15:59;;;;;;;18.50;2.88;;;6.50;99.90;;;;;;4963216;28;20048;-76
2023/12/20 12:18:46;;;;;;;19.23;4.28;;;6.50;99.90;;;;;;4967044;28;20033;-76
2023/12/20 12:21:20;;;;;;;14.85;3.10;;;6.40;99.90;;;;;;4977598;28;20046;-77
2023/12/20 12:23:46;;;;;;;15.05;2.95;;;6.40;99.90;;;;;;4976794;28;20125;-75
2023/12/20 12:26:14;;;;;;;16.80;3.17;;;6.50;99.90;;;;;;4963135;28;20094;-77
2023/12/20 12:28:46;;;;;;;13.85;2.95;;;6.40;99.90;;;;;;4962825;28;20057;-77
2023/12/20 12:31:31;;;;;;;19.10;3.57;;;6.40;99.90;;;;;;4940731;28;20077;-77
2023/12/20 12:34:04;;;;;;;18.95;3.80;;;6.40;99.90;;;;;;4973532;28;20096;-76
2023/12/20 12:36:30;;;;;;;14.02;3.22;;;6.40;99.90;;;;;;4963106;28;20034;-76
2023/12/20 12:39:03;;;;;;;18.02;3.63;;;6.50;99.90;;;;;;4958461;28;20042;-76
2023/12/20 12:41:32;;;;;;;21.65;3.88;;;6.60;99.90;;;;;;4958857;28;20101;-75
2023/12/20 12:43:57;;;;;;;19.77;3.60;;;6.50;99.90;;;;;;4958418;28;20501;-76
2023/12/20 12:46:23;;;;;;;16.10;3.05;;;6.50;99.90;;;;;;4958481;28;20038;-76
2023/12/20 12:48:52;;;;;;;15.35;3.08;;;6.50;99.90;;;;;;4958829;28;20050;-76
2023/12/20 12:51:17;;;;;;;17.77;4.00;;;6.50;99.90;;;;;;4958013;28;20034;-76
2023/12/20 12:53:46;;;;;;;11.80;3.05;;;6.50;99.90;;;;;;4956330;28;20043;-76
2023/12/20 12:56:17;;;;;;;17.30;3.05;;;6.50;99.90;;;;;;4959827;28;20046;-75
2023/12/20 12:58:48;;;;;;;16.65;4.15;;;6.50;99.90;;;;;;4960057;28;20045;-75
2023/12/20 13:01:22;;;;;;;13.20;3.33;;;6.40;99.90;;;;;;4958325;28;20049;-76
2023/12/20 13:03:50;;;;;;;18.05;3.45;;;6.40;99.90;;;;;;4957868;28;20065;-76
2023/12/20 13:06:19;;;;;;;15.93;3.22;;;6.40;99.90;;;;;;4959069;28;20070;-76